Terminal Aerodrome Forecast
Issued by NWS

Home | Current Version | Previous Version | Graphics & Text | Print | Product List | Glossary On
Versions: 1 2 3 4 5 6 7 8 9 10 11 12 13 14 15
773
FTUS43 KBIS 042320
TAFJMS
TAF
KJMS 042320Z 0500/0524 19006KT P6SM SCT150
     FM050300 16007KT P6SM BKN150
     FM051000 17006KT P6SM VCSH OVC025
     FM051300 28004KT P6SM VCSH OVC020
     FM051500 33007KT P6SM OVC025
     FM052300 29008KT P6SM BKN140=

USA.gov is the U.S. government's official web portal to all federal, state and local government web resources and services.